Latest Coastal Weather Observations for Port Kembla Harbour

IDN60701

Issued at 1:55 am EDT Saturday 25 October 2014 (issued every 10 minutes, with the page automatically refreshed every 10 minutes)

About coastal observations | Map of coastal stations | Coastal observations for NSW | Marine services | Other Formats
Station Details ID: 068253 Name: PORT KEMBLA NTC AWS Lat: -34.47 Lon: 150.91 Height: 0.0 m
Data from the previous 72 hours. | See also: Recent months for locations in New South Wales
Date/Time
EDT
Temp

°C
Wind Pressure Rain
since 9am
mm
Weather Cloud Vis
km
Sea
Height
m
Swell
Dir
 
Speed
knots
Gust
knots
hPa Trend Height
m
Period
s
Dir
25/01:30am 19.8 N 4 5 1012.4 - - - - - - - - -
25/01:00am 20.0 NNE 6 11 1012.6 - - - - - - - - -
25/12:30am 19.8 NNE 6 13 1012.8 - - - - - - - - -
25/12:00am 19.7 NNE 4 7 1012.8 - - - - - - - - -
 
Date/Time
EDT
Temp

°C
Wind Pressure Rain
since 9am
mm
Weather Cloud Vis
km
Sea
Height
m
Swell
Dir
 
Speed
knots
Gust
knots
hPa Trend Height
m
Period
s
Dir
24/11:30pm 19.8 N 5 9 1013.0 - - - - - - - - -
24/11:00pm 19.7 E 6 13 1012.9 - - - - - - - - -
24/10:30pm 19.7 ESE 10 13 1013.3 - - - - - - - - -
24/10:00pm 20.4 WSW 3 7 1013.9 - - - - - - - - -
24/09:30pm 19.7 NE 10 20 1012.8 - - - - - - - - -
24/09:20pm 19.8 NE 15 21 1011.6 - - - - - - - - -
24/09:00pm 19.9 N 5 10 1013.2 - - - - - - - - -
24/08:30pm 19.8 N 8 10 1012.8 - - - - - - - - -
24/08:00pm 19.9 N 10 14 1012.6 - - - - - - - - -
24/07:30pm 19.9 NNE 9 12 1012.5 - - - - - - - - -
24/07:00pm 19.9 NE 13 17 1012.4 - - - - - - - - -
24/06:30pm 20.0 NE 14 19 1012.1 - - - - - - - - -
24/06:00pm 20.0 NE 15 20 1012.2 - - - - - - - - -
24/05:30pm 19.9 NE 14 18 1012.2 - - - - - - - - -
24/05:00pm 19.7 NNE 15 20 1012.3 - - - - - - - - -
24/04:30pm 19.6 NNE 17 22 1012.5 - - - - - - - - -
24/04:00pm 19.6 NNE 14 18 1012.9 - - - - - - - - -
24/03:30pm 19.7 NNE 11 17 1013.3 - - - - - - - - -
24/03:00pm 19.7 NNE 11 14 1013.9 - - - - - - - - -
24/02:30pm 19.8 NNE 10 15 1014.4 - - - - - - - - -
24/02:00pm 19.8 NNE 10 13 1015.1 - - - - - - - - -
24/01:30pm 19.9 NE 11 16 1015.6 - - - - - - - - -
24/01:00pm 19.8 NE 10 15 1016.0 - - - - - - - - -
24/12:30pm 19.9 NE 12 16 1016.5 - - - - - - - - -
24/12:00pm 19.9 NE 11 15 1017.0 - - - - - - - - -
24/11:30am 19.9 NE 4 7 1017.9 - - - - - - - - -
24/11:00am 19.6 NE 7 10 1018.5 - - - - - - - - -
24/10:30am 19.9 ENE 5 10 1018.4 - - - - - - - - -
24/10:00am 20.8 NNE 7 12 1018.0 - - - - - - - - -
24/09:30am 21.1 WNW 6 8 1019.4 - - - - - - - - -
24/09:00am 20.8 N 4 6 1018.8 - - - - - - - - -
24/08:30am 20.6 NNW 3 7 1018.3 - - - - - - - - -
24/08:00am 19.4 NNE 9 12 1018.3 - - - - - - - - -
24/07:30am 19.1 N 5 7 1018.3 - - - - - - - - -
24/07:00am 19.0 NNE 7 11 1018.3 - - - - - - - - -
24/06:30am 18.9 N 10 13 1018.2 - - - - - - - - -
24/06:00am 18.9 N 11 15 1018.9 - - - - - - - - -
24/05:30am 19.0 NE 4 7 1019.3 - - - - - - - - -
24/05:00am 18.9 E 3 6 1019.0 - - - - - - - - -
24/04:30am 18.8 SE 4 5 1018.9 - - - - - - - - -
24/04:00am 18.9 SE 4 6 1018.9 - - - - - - - - -
24/03:30am 18.8 W 6 8 1019.6 - - - - - - - - -
24/03:00am 19.0 N 6 8 1018.5 - - - - - - - - -
24/02:30am 18.8 NNW 5 7 1018.6 - - - - - - - - -
24/02:00am 18.9 N 6 8 1018.3 - - - - - - - - -
24/01:30am 18.9 NNE 9 13 1018.0 - - - - - - - - -
24/01:18am 19.1 NE 6 11 1018.9 - - - - - - - - -
24/01:00am 19.2 SW 2 3 1020.9 - - - - - - - - -
24/12:30am 19.2 SSW 4 8 1021.3 - - - - - - - - -
24/12:00am 19.2 S 4 8 1021.1 - - - - - - - - -
 
Date/Time
EDT
Temp

°C
Wind Pressure Rain
since 9am
mm
Weather Cloud Vis
km
Sea
Height
m
Swell
Dir
 
Speed
knots
Gust
knots
hPa Trend Height
m
Period
s
Dir
23/11:30pm 19.2 SW 5 8 1020.7 - - - - - - - - -
23/11:00pm 19.4 SW 4 6 1020.6 - - - - - - - - -
23/10:30pm 19.2 SE 1 2 1020.1 - - - - - - - - -
23/10:00pm 19.4 SSE 3 5 1020.2 - - - - - - - - -
23/09:30pm 19.5 SSE 2 4 1019.8 - - - - - - - - -
23/09:00pm 19.6 S 3 5 1019.5 - - - - - - - - -
23/08:30pm 19.8 SE 4 6 1019.1 - - - - - - - - -
23/08:00pm 19.9 ESE 2 4 1018.8 - - - - - - - - -
23/07:30pm 19.9 ESE 1 2 1018.5 - - - - - - - - -
23/07:00pm 19.9 NE 1 1 1018.3 - - - - - - - - -
23/06:30pm 20.0 NE 2 4 1017.9 - - - - - - - - -
23/06:00pm 20.4 ESE 2 4 1017.5 - - - - - - - - -
23/05:30pm 20.4 E 2 3 1017.1 - - - - - - - - -
23/05:00pm 20.7 NNE 2 3 1016.8 - - - - - - - - -
23/04:30pm 20.5 NNE 3 5 1016.6 - - - - - - - - -
23/04:00pm 20.8 E 3 5 1016.3 - - - - - - - - -
23/03:30pm 20.9 E 3 6 1016.2 - - - - - - - - -
23/03:00pm 21.5 SE 4 7 1016.2 - - - - - - - - -
23/02:30pm 21.4 ENE 1 2 1016.3 - - - - - - - - -
23/02:00pm 21.0 ESE 3 5 1016.5 - - - - - - - - -
23/01:30pm 20.5 SE 5 7 1016.7 - - - - - - - - -
23/01:00pm 20.0 E 3 4 1016.7 - - - - - - - - -
23/12:30pm 20.2 ESE 5 6 1016.8 - - - - - - - - -
23/12:00pm 20.0 SE 7 9 1017.1 - - - - - - - - -
23/11:30am 19.9 SE 5 7 1017.3 - - - - - - - - -
23/11:00am 19.6 SE 6 8 1017.3 - - - - - - - - -
23/10:30am 19.8 SE 5 6 1017.2 - - - - - - - - -
23/10:00am 20.1 E 2 4 1017.2 - - - - - - - - -
23/09:30am 20.2 ESE 2 3 1017.2 - - - - - - - - -
23/09:00am 18.6 SE 3 5 1017.0 - - - - - - - - -
23/08:30am 18.4 ESE 2 3 1016.9 - - - - - - - - -
23/08:00am 18.6 ESE 2 3 1016.8 - - - - - - - - -
23/07:30am 17.9 SSW 2 3 1016.7 - - - - - - - - -
23/07:00am 16.5 SW 1 2 1016.7 - - - - - - - - -
23/06:30am 16.9 SSW 1 2 1016.6 - - - - - - - - -
23/06:00am 17.4 NW 2 3 1016.3 - - - - - - - - -
23/05:30am 17.8 NNE 6 8 1015.9 - - - - - - - - -
23/05:00am 17.8 NNE 6 8 1015.8 - - - - - - - - -
23/04:30am 17.7 NNE 6 7 1016.1 - - - - - - - - -
23/04:00am 17.8 NNE 6 9 1016.1 - - - - - - - - -
23/03:30am 17.7 NNE 5 7 1016.5 - - - - - - - - -
23/03:00am 17.8 NNE 7 9 1016.8 - - - - - - - - -
23/02:30am 17.7 N 6 8 1017.1 - - - - - - - - -
23/02:00am 17.6 N 5 9 1017.5 - - - - - - - - -
23/01:30am 17.6 NNE 6 8 1018.0 - - - - - - - - -
23/01:00am 17.6 N 6 7 1018.4 - - - - - - - - -
23/12:30am 17.6 N 5 7 1018.9 - - - - - - - - -
23/12:00am 17.3 N 5 6 1019.3 - - - - - - - - -
 
Date/Time
EDT
Temp

°C
Wind Pressure Rain
since 9am
mm
Weather Cloud Vis
km
Sea
Height
m
Swell
Dir
 
Speed
knots
Gust
knots
hPa Trend Height
m
Period
s
Dir
22/11:30pm 17.4 N 4 6 1019.5 - - - - - - - - -
22/11:00pm 17.8 N 4 6 1019.7 - - - - - - - - -
22/10:30pm 17.9 N 4 5 1020.0 - - - - - - - - -
22/10:00pm 18.1 N 6 8 1020.0 - - - - - - - - -
22/09:30pm 17.9 N 5 8 1019.9 - - - - - - - - -
22/09:00pm 18.2 NNE 8 11 1019.8 - - - - - - - - -
22/08:30pm 18.3 NNE 11 14 1019.5 - - - - - - - - -
22/08:00pm 18.4 NNE 15 20 1019.2 - - - - - - - - -
22/07:30pm 18.4 NNE 17 21 1019.0 - - - - - - - - -
22/07:00pm 18.4 NE 18 22 1018.9 - - - - - - - - -
22/06:30pm 18.5 NNE 17 22 1019.0 - - - - - - - - -
22/06:00pm 18.4 NE 17 21 1019.1 - - - - - - - - -
22/05:30pm 18.5 NE 18 24 1019.3 - - - - - - - - -
22/05:00pm 18.5 NE 17 23 1019.5 - - - - - - - - -
22/04:30pm 18.6 NE 18 23 1019.7 - - - - - - - - -
22/04:00pm 18.5 NE 16 22 1020.0 - - - - - - - - -
22/03:30pm 18.4 NE 17 22 1020.4 - - - - - - - - -
22/03:00pm 18.3 NE 17 23 1020.8 - - - - - - - - -
22/02:30pm 18.2 NE 16 22 1021.3 - - - - - - - - -
22/02:00pm 18.2 NE 16 22 1021.9 - - - - - - - - -
22/01:30pm 18.1 NE 17 23 1022.3 - - - - - - - - -
22/01:00pm 18.1 NE 14 22 1023.0 - - - - - - - - -

Other Formats:

Comma delimited format used in spreadsheet applications
http://www.bom.gov.au/fwo/IDN60701/IDN60701.95745.axf

JavaScript Object Notation format (JSON) in row-major order
http://www.bom.gov.au/fwo/IDN60701/IDN60701.95745.json